createdAt,value
2022-08-20T00:00:00.229Z,80.50
2022-08-20T00:02:28.628Z,80.59
2022-08-20T00:04:57.023Z,81.56
2022-08-20T00:07:25.586Z,80.96
2022-08-20T00:09:54.049Z,80.69
2022-08-20T00:12:22.634Z,80.47
2022-08-20T00:14:51.342Z,80.66
2022-08-20T00:17:21.179Z,80.83
2022-08-20T00:19:49.685Z,82.41
2022-08-20T00:22:18.346Z,82.46
2022-08-20T00:24:46.792Z,83.17
2022-08-20T00:27:15.199Z,83.66
2022-08-20T00:29:44.021Z,82.73
2022-08-20T00:32:12.372Z,82.85
2022-08-20T00:34:42.448Z,82.07
2022-08-20T00:37:11.270Z,82.44
2022-08-20T00:39:39.821Z,83.88
2022-08-20T00:42:08.906Z,83.70
2022-08-20T00:44:37.979Z,83.54
2022-08-20T00:47:06.574Z,84.09
2022-08-20T00:49:35.090Z,83.69
2022-08-20T00:52:09.251Z,84.19
2022-08-20T00:54:42.872Z,84.70
2022-08-20T00:57:14.649Z,85.65
2022-08-20T00:59:44.174Z,85.20
2022-08-20T01:02:17.842Z,85.05
2022-08-20T01:04:48.161Z,86.09
2022-08-20T01:07:20.683Z,86.69
2022-08-20T01:09:59.051Z,86.07
2022-08-20T01:12:31.004Z,86.33
2022-08-20T01:15:03.509Z,85.28
2022-08-20T01:17:36.499Z,86.16
2022-08-20T01:20:08.954Z,85.96
2022-08-20T01:23:02.062Z,85.03
2022-08-20T01:25:42.324Z,86.41
2022-08-20T01:28:13.017Z,86.18
2022-08-20T01:30:41.650Z,86.69
2022-08-20T01:33:10.255Z,86.41
2022-08-20T01:35:41.266Z,86.28
2022-08-20T01:38:10.507Z,87.37
2022-08-20T01:40:54.053Z,86.33
2022-08-20T01:43:24.308Z,87.27
2022-08-20T01:45:55.220Z,87.93
2022-08-20T01:48:24.365Z,88.81
2022-08-20T01:51:02.220Z,88.92
2022-08-20T01:53:34.681Z,89.90
2022-08-20T01:56:07.248Z,89.94
2022-08-20T01:58:39.265Z,89.82
2022-08-20T02:01:07.953Z,90.51
2022-08-20T02:03:39.769Z,90.09
2022-08-20T02:06:11.480Z,90.20
2022-08-20T02:08:40.049Z,90.29
2022-08-20T02:11:10.366Z,90.71
2022-08-20T02:13:40.987Z,90.98
2022-08-20T02:16:09.964Z,91.43
2022-08-20T02:18:38.365Z,93.10
2022-08-20T02:21:07.025Z,92.54
2022-08-20T02:23:35.484Z,98.04
2022-08-20T02:30:19.314Z,95.45
2022-08-20T02:32:56.585Z,95.77
2022-08-20T02:35:27.255Z,96.67
2022-08-20T02:37:56.206Z,99.65
2022-08-20T02:40:30.636Z,96.86
2022-08-20T02:42:59.673Z,97.40
2022-08-20T02:45:36.176Z,98.05
2022-08-20T02:48:05.746Z,98.54
2022-08-20T02:50:34.618Z,99.20
2022-08-20T02:53:02.891Z,98.97
2022-08-20T02:55:31.146Z,99.13
2022-08-20T02:58:00.981Z,100.00
2022-08-20T03:00:37.958Z,99.40
2022-08-20T03:03:08.235Z,100.00
2022-08-20T03:09:16.969Z,98.72
2022-08-20T03:11:47.405Z,100.00
2022-08-20T03:14:15.604Z,100.00
2022-08-20T03:20:46.174Z,100.00
2022-08-20T03:23:21.578Z,99.97
2022-08-20T03:25:50.651Z,100.00
2022-08-20T03:28:19.413Z,98.78
2022-08-20T03:30:48.926Z,98.71
2022-08-20T03:33:17.446Z,99.12
2022-08-20T03:35:47.660Z,99.66
2022-08-20T03:38:18.695Z,99.90
2022-08-20T03:41:00.908Z,100.00
2022-08-20T03:43:29.872Z,100.00
2022-08-20T03:45:58.356Z,100.00
2022-08-20T03:48:26.974Z,100.00
2022-08-20T03:50:58.606Z,100.00
2022-08-20T03:53:31.668Z,100.00
2022-08-20T03:56:04.456Z,100.00
2022-08-20T03:58:36.346Z,100.00
2022-08-20T04:01:36.823Z,100.00
2022-08-20T04:03:58.748Z,100.00
2022-08-20T04:06:29.281Z,100.00
2022-08-20T04:08:57.880Z,100.00
2022-08-20T04:11:26.233Z,100.00
2022-08-20T04:13:54.865Z,100.00
2022-08-20T04:16:23.209Z,100.00
2022-08-20T04:19:01.844Z,100.00
2022-08-20T04:21:33.600Z,100.00
2022-08-20T04:24:03.483Z,100.00
2022-08-20T04:26:32.258Z,100.00
2022-08-20T04:29:00.525Z,100.00
2022-08-20T04:31:33.270Z,100.00
2022-08-20T04:34:03.114Z,100.00
2022-08-20T04:36:32.829Z,100.00
2022-08-20T04:39:01.069Z,100.00
2022-08-20T04:41:28.773Z,100.00
2022-08-20T04:43:58.367Z,100.00
2022-08-20T04:46:29.010Z,100.00
2022-08-20T04:48:58.520Z,100.00
2022-08-20T04:51:27.117Z,100.00
2022-08-20T04:53:58.064Z,100.00
2022-08-20T04:56:28.752Z,100.00
2022-08-20T04:58:59.571Z,100.00
2022-08-20T05:01:29.298Z,100.00
2022-08-20T05:04:00.613Z,100.00
2022-08-20T05:06:32.509Z,100.00
2022-08-20T05:09:02.766Z,100.00
2022-08-20T05:11:35.998Z,100.00
2022-08-20T05:14:07.766Z,100.00
2022-08-20T05:16:40.987Z,100.00
2022-08-20T05:19:12.314Z,100.00
2022-08-20T05:21:41.328Z,100.00
2022-08-20T05:24:12.309Z,100.00
2022-08-20T05:26:40.983Z,100.00
2022-08-20T05:29:09.676Z,100.00
2022-08-20T05:31:38.705Z,100.00
2022-08-20T05:34:11.102Z,100.00
2022-08-20T05:36:41.177Z,100.00
2022-08-20T05:39:13.484Z,100.00
2022-08-20T05:41:42.178Z,100.00
2022-08-20T05:44:13.794Z,100.00
2022-08-20T05:46:46.266Z,100.00
2022-08-20T05:49:19.675Z,100.00
2022-08-20T05:51:48.320Z,100.00
2022-08-20T05:54:18.605Z,100.00
2022-08-20T05:56:46.849Z,100.00
2022-08-20T05:59:15.146Z,100.00
2022-08-20T06:01:44.307Z,100.00
2022-08-20T06:04:28.222Z,100.00
2022-08-20T06:06:59.210Z,100.00
2022-08-20T06:09:31.784Z,100.00
2022-08-20T06:12:03.300Z,100.00
2022-08-20T06:14:32.431Z,100.00
2022-08-20T06:17:04.854Z,100.00
2022-08-20T06:19:35.826Z,100.00
2022-08-20T06:22:17.697Z,100.00
2022-08-20T06:24:52.706Z,100.00
2022-08-20T06:27:21.727Z,100.00
2022-08-20T06:29:49.918Z,100.00
2022-08-20T06:32:19.928Z,100.00
2022-08-20T06:35:02.178Z,100.00
2022-08-20T06:37:31.952Z,100.00
2022-08-20T06:40:05.872Z,99.96
2022-08-20T06:42:34.397Z,100.00
2022-08-20T06:45:04.986Z,100.00
2022-08-20T06:47:34.582Z,100.00
2022-08-20T06:50:03.270Z,100.00
2022-08-20T06:52:51.679Z,100.00
2022-08-20T06:55:22.538Z,100.00
2022-08-20T06:57:59.551Z,100.00
2022-08-20T07:00:29.393Z,100.00
2022-08-20T07:03:00.704Z,100.00
2022-08-20T07:05:29.250Z,100.00
2022-08-20T07:07:58.792Z,100.00
2022-08-20T07:10:31.345Z,100.00
2022-08-20T07:13:00.523Z,100.00
2022-08-20T07:15:28.971Z,100.00
2022-08-20T07:18:01.510Z,100.00
2022-08-20T07:20:31.796Z,100.00
2022-08-20T07:23:00.702Z,100.00
2022-08-20T07:25:31.953Z,100.00
2022-08-20T07:28:05.367Z,100.00
2022-08-20T07:30:56.746Z,100.00
2022-08-20T07:33:28.396Z,99.41
2022-08-20T07:35:57.541Z,98.82
2022-08-20T07:38:27.007Z,98.16
2022-08-20T07:40:59.226Z,99.54
2022-08-20T07:43:28.421Z,99.84
2022-08-20T07:46:00.772Z,98.65
2022-08-20T07:48:32.159Z,97.69
2022-08-20T07:51:03.834Z,97.23
2022-08-20T07:53:35.704Z,97.11
2022-08-20T07:56:08.786Z,95.48
2022-08-20T07:58:38.460Z,93.57
2022-08-20T08:01:08.536Z,90.16
2022-08-20T08:03:49.584Z,89.58
2022-08-20T08:06:29.361Z,87.45
2022-08-20T08:09:03.418Z,85.87
2022-08-20T08:11:38.356Z,84.92
2022-08-20T08:14:09.763Z,84.34
2022-08-20T08:16:45.203Z,84.31
2022-08-20T08:19:16.982Z,83.33
2022-08-20T08:21:46.048Z,85.37
2022-08-20T08:24:19.906Z,84.89
2022-08-20T08:26:52.586Z,83.92
2022-08-20T08:29:20.869Z,84.65
2022-08-20T08:31:49.211Z,83.27
2022-08-20T08:34:17.716Z,84.33
2022-08-20T08:36:46.016Z,84.92
2022-08-20T08:39:14.251Z,84.08
2022-08-20T08:41:48.301Z,84.58
2022-08-20T08:44:23.848Z,84.00
2022-08-20T08:46:56.397Z,83.75
2022-08-20T08:49:30.150Z,81.72
2022-08-20T08:52:12.283Z,81.50
2022-08-20T08:54:51.715Z,80.66
2022-08-20T08:57:20.633Z,80.89
2022-08-20T09:00:03.493Z,80.51
2022-08-20T09:02:36.358Z,78.80
2022-08-20T09:05:14.866Z,78.86
2022-08-20T09:07:45.877Z,78.50
2022-08-20T09:10:14.652Z,78.67
2022-08-20T09:12:47.736Z,78.39
2022-08-20T09:15:17.835Z,77.65
2022-08-20T09:17:45.993Z,77.19
2022-08-20T09:20:14.295Z,76.70
2022-08-20T09:22:42.900Z,76.79
2022-08-20T09:25:11.344Z,76.93
2022-08-20T09:27:41.571Z,77.38
2022-08-20T09:30:13.770Z,77.32
2022-08-20T09:32:44.576Z,76.83
2022-08-20T09:35:14.632Z,76.43
2022-08-20T09:37:43.065Z,76.12
2022-08-20T09:40:12.963Z,77.37
2022-08-20T09:42:41.953Z,76.51
2022-08-20T09:45:11.712Z,76.80
2022-08-20T09:47:48.640Z,76.64
2022-08-20T09:50:28.693Z,75.82
2022-08-20T09:53:00.755Z,76.48
2022-08-20T09:55:35.997Z,76.56
2022-08-20T09:58:08.969Z,76.25
2022-08-20T10:00:37.734Z,76.66
2022-08-20T10:03:06.223Z,75.80
2022-08-20T10:05:36.182Z,75.58
2022-08-20T10:08:06.950Z,74.19
2022-08-20T10:10:36.000Z,73.76
2022-08-20T10:13:05.337Z,73.76
2022-08-20T10:15:34.316Z,74.11
2022-08-20T10:18:05.991Z,73.09
2022-08-20T10:20:36.826Z,72.92
2022-08-20T10:23:06.076Z,72.67
2022-08-20T10:25:35.119Z,72.02
2022-08-20T10:28:04.176Z,72.57
2022-08-20T10:30:32.952Z,71.74
2022-08-20T10:33:01.271Z,70.94
2022-08-20T10:35:30.102Z,72.84
2022-08-20T10:38:00.008Z,73.17
2022-08-20T10:40:28.542Z,72.73
2022-08-20T10:42:57.256Z,73.52
2022-08-20T10:45:25.933Z,75.89
2022-08-20T10:47:54.286Z,74.35
2022-08-20T10:50:22.794Z,74.76
2022-08-20T10:52:50.909Z,74.98
2022-08-20T10:55:21.056Z,75.43
2022-08-20T10:57:50.003Z,76.05
2022-08-20T11:00:19.724Z,74.65
2022-08-20T11:02:48.127Z,74.33
2022-08-20T11:05:16.618Z,73.12
2022-08-20T11:07:59.713Z,70.96
2022-08-20T11:10:33.310Z,72.33
2022-08-20T11:13:02.668Z,72.79
2022-08-20T11:15:31.435Z,70.57
2022-08-20T11:17:59.688Z,70.28
2022-08-20T11:20:28.238Z,68.16
2022-08-20T11:22:56.481Z,67.71
2022-08-20T11:25:25.290Z,67.24
2022-08-20T11:27:55.520Z,69.12
2022-08-20T11:30:27.498Z,67.46
2022-08-20T11:32:57.208Z,67.29
2022-08-20T11:35:49.007Z,68.93
2022-08-20T11:38:15.190Z,68.91
2022-08-20T11:40:43.868Z,71.21
2022-08-20T11:43:15.532Z,67.56
2022-08-20T11:45:45.387Z,67.36
2022-08-20T11:48:13.662Z,66.24
2022-08-20T11:50:43.108Z,67.95
2022-08-20T11:53:11.617Z,66.91
2022-08-20T11:55:40.620Z,65.63
2022-08-20T11:58:09.577Z,66.61
2022-08-20T12:00:40.402Z,68.80
2022-08-20T12:03:12.603Z,68.55
2022-08-20T12:05:43.368Z,68.55
2022-08-20T12:08:25.184Z,68.55
2022-08-20T12:10:58.156Z,68.55
2022-08-20T12:13:30.822Z,68.55
2022-08-20T12:16:17.770Z,68.55
2022-08-20T12:18:46.289Z,68.18
2022-08-20T12:21:14.582Z,66.58
2022-08-20T12:23:43.959Z,68.00
2022-08-20T12:26:12.334Z,68.00
2022-08-20T12:28:40.755Z,69.51
2022-08-20T12:31:09.157Z,71.01
2022-08-20T12:33:38.773Z,76.66
2022-08-20T12:36:20.907Z,77.96
2022-08-20T12:38:54.473Z,82.02
2022-08-20T12:41:22.861Z,84.05
2022-08-20T12:43:51.083Z,85.96
2022-08-20T12:46:19.509Z,87.87
2022-08-20T12:48:49.162Z,86.99
2022-08-20T12:51:17.432Z,87.91
2022-08-20T12:53:45.883Z,89.53
2022-08-20T12:56:14.266Z,89.55
2022-08-20T12:58:43.393Z,92.18
2022-08-20T13:01:11.936Z,94.66
2022-08-20T13:03:45.273Z,97.97
2022-08-20T13:06:15.612Z,100.00
2022-08-20T13:08:44.002Z,100.00
2022-08-20T13:11:12.275Z,100.00
2022-08-20T13:13:41.153Z,100.00
2022-08-20T13:16:11.359Z,100.00
2022-08-20T13:18:42.811Z,97.99
2022-08-20T13:21:11.047Z,95.27
2022-08-20T13:23:40.859Z,93.52
2022-08-20T13:26:09.689Z,95.94
2022-08-20T13:28:38.017Z,97.67
2022-08-20T13:31:06.627Z,99.09
2022-08-20T13:33:35.263Z,100.00
2022-08-20T13:36:03.609Z,100.00
2022-08-20T13:38:32.488Z,100.00
2022-08-20T13:41:02.475Z,100.00
2022-08-20T13:43:30.994Z,100.00
2022-08-20T13:45:59.563Z,100.00
2022-08-20T13:48:28.231Z,100.00
2022-08-20T13:50:56.624Z,100.00
2022-08-20T13:53:24.911Z,100.00
2022-08-20T13:55:53.557Z,100.00
2022-08-20T13:58:23.965Z,100.00
2022-08-20T14:00:52.540Z,100.00
2022-08-20T14:03:25.517Z,100.00
2022-08-20T14:05:54.754Z,100.00
2022-08-20T14:08:25.489Z,100.00
2022-08-20T14:10:53.850Z,100.00
2022-08-20T14:13:25.882Z,100.00
2022-08-20T14:15:55.039Z,100.00
2022-08-20T14:18:23.635Z,100.00
2022-08-20T14:20:52.415Z,100.00
2022-08-20T14:23:20.904Z,100.00
2022-08-20T14:25:51.001Z,100.00
2022-08-20T14:28:22.346Z,100.00
2022-08-20T14:30:53.811Z,100.00
2022-08-20T14:33:23.271Z,100.00
2022-08-20T14:35:52.188Z,100.00
2022-08-20T14:38:20.742Z,100.00
2022-08-20T14:40:50.468Z,100.00
2022-08-20T14:43:19.758Z,100.00
2022-08-20T14:45:48.177Z,100.00
2022-08-20T14:48:19.179Z,100.00
2022-08-20T14:50:47.762Z,100.00
2022-08-20T14:53:15.903Z,100.00
2022-08-20T14:55:44.128Z,100.00
2022-08-20T14:58:13.864Z,100.00
2022-08-20T15:00:43.434Z,100.00
2022-08-20T15:03:13.432Z,100.00
2022-08-20T15:05:43.929Z,100.00
2022-08-20T15:08:12.393Z,100.00
2022-08-20T15:10:42.883Z,100.00
2022-08-20T15:13:11.474Z,100.00
2022-08-20T15:15:40.576Z,100.00
2022-08-20T15:18:09.044Z,100.00
2022-08-20T15:20:39.491Z,100.00
2022-08-20T15:23:10.673Z,100.00
2022-08-20T15:25:39.201Z,100.00
2022-08-20T15:28:12.964Z,100.00
2022-08-20T15:30:43.143Z,100.00
2022-08-20T15:33:12.543Z,100.00
2022-08-20T15:35:41.100Z,100.00
2022-08-20T15:38:11.120Z,100.00
2022-08-20T15:40:39.599Z,100.00
2022-08-20T15:43:08.069Z,100.00
2022-08-20T15:45:37.227Z,100.00
2022-08-20T15:48:13.485Z,100.00
2022-08-20T15:51:15.884Z,100.00
2022-08-20T15:53:56.669Z,100.00
2022-08-20T15:56:58.373Z,100.00
2022-08-20T15:59:52.884Z,100.00
2022-08-20T16:02:45.954Z,100.00
2022-08-20T16:05:24.919Z,100.00
2022-08-20T16:08:07.247Z,100.00
2022-08-20T16:10:44.189Z,100.00
2022-08-20T16:13:26.271Z,100.00
2022-08-20T16:15:57.997Z,100.00
2022-08-20T16:18:31.646Z,100.00
2022-08-20T16:21:03.582Z,100.00
2022-08-20T16:23:36.436Z,100.00
2022-08-20T16:26:23.903Z,100.00
2022-08-20T16:29:04.821Z,100.00
2022-08-20T16:31:47.218Z,100.00
2022-08-20T16:34:33.654Z,100.00
2022-08-20T16:37:12.210Z,100.00
2022-08-20T16:39:48.404Z,100.00
2022-08-20T16:42:24.794Z,100.00
2022-08-20T16:44:55.953Z,100.00
2022-08-20T16:47:31.327Z,100.00
2022-08-20T16:50:03.922Z,100.00
2022-08-20T16:52:32.238Z,100.00
2022-08-20T16:55:00.824Z,100.00
2022-08-20T16:57:30.829Z,100.00
2022-08-20T17:00:13.112Z,100.00
2022-08-20T17:03:00.712Z,100.00
2022-08-20T17:05:33.223Z,100.00
2022-08-20T17:08:04.066Z,100.00
2022-08-20T17:10:34.925Z,100.00
2022-08-20T17:13:20.771Z,100.00
2022-08-20T17:15:55.542Z,100.00
2022-08-20T17:18:26.084Z,100.00
2022-08-20T17:20:54.792Z,100.00
2022-08-20T17:23:23.971Z,100.00
2022-08-20T17:26:02.178Z,100.00
2022-08-20T17:28:35.452Z,100.00
2022-08-20T17:31:04.431Z,100.00
2022-08-20T17:33:35.550Z,100.00
2022-08-20T17:36:11.352Z,100.00
2022-08-20T17:38:46.819Z,100.00
2022-08-20T17:41:25.156Z,100.00
2022-08-20T17:44:03.702Z,100.00
2022-08-20T17:46:35.321Z,100.00
2022-08-20T17:49:09.591Z,100.00
2022-08-20T17:51:40.277Z,100.00
2022-08-20T17:54:13.207Z,100.00
2022-08-20T17:56:44.182Z,100.00
2022-08-20T17:59:36.321Z,100.00
2022-08-20T18:02:09.250Z,100.00
2022-08-20T18:04:38.274Z,100.00
2022-08-20T18:07:15.179Z,100.00
2022-08-20T18:09:51.462Z,100.00
2022-08-20T18:12:33.821Z,100.00
2022-08-20T18:15:15.687Z,100.00
2022-08-20T18:18:14.062Z,100.00
2022-08-20T18:21:14.376Z,100.00
2022-08-20T18:23:47.909Z,100.00
2022-08-20T18:26:22.945Z,100.00
2022-08-20T18:28:55.272Z,100.00
2022-08-20T18:31:32.684Z,100.00
2022-08-20T18:34:12.007Z,100.00
2022-08-20T18:36:42.542Z,100.00
2022-08-20T18:39:24.810Z,100.00
2022-08-20T18:42:00.371Z,100.00
2022-08-20T18:44:40.293Z,100.00
2022-08-20T18:47:22.912Z,100.00
2022-08-20T18:50:07.473Z,100.00
2022-08-20T18:52:46.923Z,100.00
2022-08-20T18:55:30.265Z,100.00
2022-08-20T18:58:01.453Z,100.00
2022-08-20T19:00:37.797Z,100.00
2022-08-20T19:03:18.337Z,100.00
2022-08-20T19:06:08.702Z,100.00
2022-08-20T19:08:44.554Z,100.00
2022-08-20T19:11:35.415Z,100.00
2022-08-20T19:14:34.527Z,100.00
2022-08-20T19:17:07.699Z,100.00
2022-08-20T19:19:38.018Z,100.00
2022-08-20T19:22:06.871Z,100.00
2022-08-20T19:24:39.604Z,100.00
2022-08-20T19:27:13.539Z,100.00
2022-08-20T19:29:49.672Z,100.00
2022-08-20T19:32:22.163Z,100.00
2022-08-20T19:34:57.860Z,100.00
2022-08-20T19:37:40.036Z,100.00
2022-08-20T19:40:28.376Z,100.00
2022-08-20T19:42:59.623Z,100.00
2022-08-20T19:45:33.671Z,100.00
2022-08-20T19:48:27.139Z,100.00
2022-08-20T19:51:07.571Z,100.00
2022-08-20T19:53:46.474Z,100.00
2022-08-20T19:56:17.207Z,100.00
2022-08-20T19:58:46.852Z,100.00
2022-08-20T20:01:19.207Z,100.00
2022-08-20T20:03:58.494Z,100.00
2022-08-20T20:06:29.904Z,100.00
2022-08-20T20:09:02.465Z,100.00
2022-08-20T20:11:35.926Z,100.00
2022-08-20T20:14:07.703Z,100.00
2022-08-20T20:16:38.807Z,100.00
2022-08-20T20:19:25.767Z,100.00
2022-08-20T20:22:19.916Z,100.00
2022-08-20T20:24:58.010Z,100.00
2022-08-20T20:27:28.933Z,100.00
2022-08-20T20:30:02.566Z,100.00
2022-08-20T20:32:33.991Z,100.00
2022-08-20T20:35:07.282Z,100.00
2022-08-20T20:37:50.550Z,100.00
2022-08-20T20:40:26.317Z,100.00
2022-08-20T20:43:03.660Z,100.00
2022-08-20T20:45:36.120Z,100.00
2022-08-20T20:48:16.473Z,100.00
2022-08-20T20:50:47.193Z,100.00
2022-08-20T20:53:35.080Z,100.00
2022-08-20T20:56:32.625Z,100.00
2022-08-20T20:59:06.226Z,100.00
2022-08-20T21:01:49.863Z,100.00
2022-08-20T21:04:21.727Z,100.00
2022-08-20T21:06:52.205Z,100.00
2022-08-20T21:09:23.096Z,100.00
2022-08-20T21:11:51.972Z,100.00
2022-08-20T21:14:20.755Z,100.00
2022-08-20T21:16:49.354Z,100.00
2022-08-20T21:19:18.877Z,100.00
2022-08-20T21:21:47.469Z,100.00
2022-08-20T21:24:15.882Z,100.00
2022-08-20T21:26:46.717Z,100.00
2022-08-20T21:29:21.858Z,100.00
2022-08-20T21:31:50.804Z,100.00
2022-08-20T21:34:19.689Z,100.00
2022-08-20T21:36:48.410Z,100.00
2022-08-20T21:39:20.020Z,100.00
2022-08-20T21:41:50.264Z,100.00
2022-08-20T21:44:22.341Z,100.00
2022-08-20T21:46:55.253Z,100.00
2022-08-20T21:49:24.683Z,100.00
2022-08-20T21:51:53.369Z,100.00
2022-08-20T21:54:22.701Z,100.00
2022-08-20T21:56:58.036Z,100.00
2022-08-20T21:59:27.087Z,100.00
2022-08-20T22:01:55.428Z,100.00
2022-08-20T22:04:24.492Z,100.00
2022-08-20T22:06:53.264Z,100.00
2022-08-20T22:09:21.857Z,100.00
2022-08-20T22:11:55.156Z,97.16
2022-08-20T22:14:25.552Z,100.00
2022-08-20T22:16:54.385Z,100.00
2022-08-20T22:19:22.971Z,100.00
2022-08-20T22:21:54.237Z,100.00
2022-08-20T22:24:30.529Z,100.00
2022-08-20T22:27:01.202Z,100.00
2022-08-20T22:29:43.922Z,100.00
2022-08-20T22:32:33.544Z,100.00
2022-08-20T22:35:16.212Z,100.00
2022-08-20T22:37:44.930Z,100.00
2022-08-20T22:40:16.596Z,100.00
2022-08-20T22:42:52.935Z,100.00
2022-08-20T22:45:34.382Z,100.00
2022-08-20T22:48:03.612Z,100.00
2022-08-20T22:50:38.238Z,100.00
2022-08-20T22:53:07.889Z,100.00
2022-08-20T22:55:37.070Z,100.00
2022-08-20T22:58:08.091Z,100.00
2022-08-20T23:00:40.347Z,100.00
2022-08-20T23:03:09.747Z,100.00
2022-08-20T23:05:40.600Z,100.00
2022-08-20T23:08:10.564Z,100.00
2022-08-20T23:10:39.973Z,100.00
2022-08-20T23:13:09.761Z,100.00
2022-08-20T23:15:45.221Z,100.00
2022-08-20T23:18:16.191Z,100.00
2022-08-20T23:20:49.875Z,100.00
2022-08-20T23:23:18.518Z,100.00
2022-08-20T23:25:50.087Z,100.00
2022-08-20T23:28:21.929Z,100.00
2022-08-20T23:30:53.584Z,100.00
2022-08-20T23:33:44.191Z,100.00
2022-08-20T23:36:20.929Z,100.00
2022-08-20T23:38:58.078Z,100.00
2022-08-20T23:41:26.925Z,100.00
2022-08-20T23:43:56.673Z,100.00
2022-08-20T23:46:27.551Z,100.00
2022-08-20T23:48:56.629Z,100.00
2022-08-20T23:51:25.406Z,100.00
2022-08-20T23:53:53.764Z,100.00
2022-08-20T23:56:22.374Z,100.00
2022-08-20T23:58:51.534Z,100.00
